Terminal Aerodrome Forecast
Issued by NWS Nashville, TN

Home | Current Version | Previous Version | Text Only | Print | Product List | Glossary On
Versions: 1 2 3 4 5 6 7 8 9 10 11 12 13 14 15 16 17 18 19 20 21 22 23
566
FTUS44 KOHX 261424 AAA
TAFCSV
TAF AMD
KCSV 261424Z 2614/2712 VRB03KT P6SM OVC100
     FM261600 08005KT 5SM -RA BR SCT030 OVC080
     FM261800 05005KT 4SM -RA BR BKN025 OVC060
     FM270300 00000KT 4SM BR OVC015
     FM270900 00000KT 4SM BR OVC007=

USA.gov is the U.S. government's official web portal to all federal, state and local government web resources and services.